sensor_id;sensor_type;location;lat;lon;timestamp;P1;durP1;ratioP1;P2;durP2;ratioP2
59830;SDS011;45711;50.108;13.712;2023-07-30T00:01:42;13.93;;;5.85;;
59830;SDS011;45711;50.108;13.712;2023-07-30T00:04:08;9.27;;;5.05;;
59830;SDS011;45711;50.108;13.712;2023-07-30T00:06:33;9.23;;;4.20;;
59830;SDS011;45711;50.108;13.712;2023-07-30T00:08:59;12.68;;;3.33;;
59830;SDS011;45711;50.108;13.712;2023-07-30T00:11:26;4.90;;;2.58;;
59830;SDS011;45711;50.108;13.712;2023-07-30T00:13:52;2.85;;;2.10;;
59830;SDS011;45711;50.108;13.712;2023-07-30T00:16:18;3.50;;;2.15;;
59830;SDS011;45711;50.108;13.712;2023-07-30T00:18:43;5.43;;;2.20;;
59830;SDS011;45711;50.108;13.712;2023-07-30T00:21:09;5.82;;;2.03;;
59830;SDS011;45711;50.108;13.712;2023-07-30T00:23:34;6.85;;;2.10;;
59830;SDS011;45711;50.108;13.712;2023-07-30T00:26:00;9.05;;;2.40;;
59830;SDS011;45711;50.108;13.712;2023-07-30T00:28:27;5.65;;;2.33;;
59830;SDS011;45711;50.108;13.712;2023-07-30T00:30:52;9.05;;;2.00;;
59830;SDS011;45711;50.108;13.712;2023-07-30T00:33:18;6.35;;;2.22;;
59830;SDS011;45711;50.108;13.712;2023-07-30T00:35:44;4.53;;;2.50;;
59830;SDS011;45711;50.108;13.712;2023-07-30T00:38:09;4.35;;;2.20;;
59830;SDS011;45711;50.108;13.712;2023-07-30T00:40:39;4.63;;;2.47;;
59830;SDS011;45711;50.108;13.712;2023-07-30T00:43:05;6.03;;;2.70;;
59830;SDS011;45711;50.108;13.712;2023-07-30T00:45:32;6.63;;;2.70;;
59830;SDS011;45711;50.108;13.712;2023-07-30T00:47:58;5.60;;;2.28;;
59830;SDS011;45711;50.108;13.712;2023-07-30T00:50:24;5.95;;;2.50;;
59830;SDS011;45711;50.108;13.712;2023-07-30T00:52:50;10.50;;;2.15;;
59830;SDS011;45711;50.108;13.712;2023-07-30T00:55:15;4.35;;;2.30;;
59830;SDS011;45711;50.108;13.712;2023-07-30T00:57:41;6.45;;;2.30;;
59830;SDS011;45711;50.108;13.712;2023-07-30T01:00:08;6.85;;;2.58;;
59830;SDS011;45711;50.108;13.712;2023-07-30T01:02:36;9.18;;;2.92;;
59830;SDS011;45711;50.108;13.712;2023-07-30T01:05:02;11.25;;;2.22;;
59830;SDS011;45711;50.108;13.712;2023-07-30T01:07:31;9.02;;;2.75;;
59830;SDS011;45711;50.108;13.712;2023-07-30T01:09:57;7.28;;;3.05;;
59830;SDS011;45711;50.108;13.712;2023-07-30T01:12:23;7.00;;;2.40;;
59830;SDS011;45711;50.108;13.712;2023-07-30T01:14:49;7.18;;;2.45;;
59830;SDS011;45711;50.108;13.712;2023-07-30T01:17:15;6.10;;;2.40;;
59830;SDS011;45711;50.108;13.712;2023-07-30T01:19:43;6.32;;;3.10;;
59830;SDS011;45711;50.108;13.712;2023-07-30T01:22:10;5.18;;;3.10;;
59830;SDS011;45711;50.108;13.712;2023-07-30T01:24:36;8.45;;;2.85;;
59830;SDS011;45711;50.108;13.712;2023-07-30T01:27:02;9.25;;;2.67;;
59830;SDS011;45711;50.108;13.712;2023-07-30T01:29:33;6.97;;;2.75;;
59830;SDS011;45711;50.108;13.712;2023-07-30T01:34:34;8.00;;;2.70;;
59830;SDS011;45711;50.108;13.712;2023-07-30T01:37:00;12.35;;;3.10;;
59830;SDS011;45711;50.108;13.712;2023-07-30T01:39:28;6.80;;;2.90;;
59830;SDS011;45711;50.108;13.712;2023-07-30T01:41:55;5.60;;;3.00;;
59830;SDS011;45711;50.108;13.712;2023-07-30T01:44:21;14.13;;;3.42;;
59830;SDS011;45711;50.108;13.712;2023-07-30T01:46:46;8.25;;;2.90;;
59830;SDS011;45711;50.108;13.712;2023-07-30T01:49:12;5.00;;;3.00;;
59830;SDS011;45711;50.108;13.712;2023-07-30T01:51:38;10.25;;;3.20;;
59830;SDS011;45711;50.108;13.712;2023-07-30T01:54:03;7.38;;;2.75;;
59830;SDS011;45711;50.108;13.712;2023-07-30T01:56:31;10.93;;;2.78;;
59830;SDS011;45711;50.108;13.712;2023-07-30T01:58:57;5.35;;;2.30;;
59830;SDS011;45711;50.108;13.712;2023-07-30T02:01:22;10.57;;;3.00;;
59830;SDS011;45711;50.108;13.712;2023-07-30T02:03:48;8.32;;;2.47;;
59830;SDS011;45711;50.108;13.712;2023-07-30T02:06:14;6.03;;;2.83;;
59830;SDS011;45711;50.108;13.712;2023-07-30T02:08:39;7.82;;;2.47;;
59830;SDS011;45711;50.108;13.712;2023-07-30T02:11:05;6.18;;;2.90;;
59830;SDS011;45711;50.108;13.712;2023-07-30T02:13:32;13.77;;;3.10;;
59830;SDS011;45711;50.108;13.712;2023-07-30T02:15:58;9.85;;;2.75;;
59830;SDS011;45711;50.108;13.712;2023-07-30T02:18:24;6.85;;;2.50;;
59830;SDS011;45711;50.108;13.712;2023-07-30T02:20:49;16.55;;;2.80;;
59830;SDS011;45711;50.108;13.712;2023-07-30T02:23:15;6.72;;;2.60;;
59830;SDS011;45711;50.108;13.712;2023-07-30T02:25:43;11.23;;;2.55;;
59830;SDS011;45711;50.108;13.712;2023-07-30T02:28:09;8.00;;;2.35;;
59830;SDS011;45711;50.108;13.712;2023-07-30T02:30:36;5.32;;;2.17;;
59830;SDS011;45711;50.108;13.712;2023-07-30T02:33:02;9.80;;;2.72;;
59830;SDS011;45711;50.108;13.712;2023-07-30T02:35:27;8.95;;;2.42;;
59830;SDS011;45711;50.108;13.712;2023-07-30T02:37:53;6.35;;;3.35;;
59830;SDS011;45711;50.108;13.712;2023-07-30T02:40:18;6.90;;;3.00;;
59830;SDS011;45711;50.108;13.712;2023-07-30T02:42:44;6.68;;;2.97;;
59830;SDS011;45711;50.108;13.712;2023-07-30T02:45:09;12.45;;;2.88;;
59830;SDS011;45711;50.108;13.712;2023-07-30T02:47:37;7.57;;;3.10;;
59830;SDS011;45711;50.108;13.712;2023-07-30T02:50:03;5.45;;;2.78;;
59830;SDS011;45711;50.108;13.712;2023-07-30T02:52:29;9.05;;;3.38;;
59830;SDS011;45711;50.108;13.712;2023-07-30T02:54:55;9.57;;;3.33;;
59830;SDS011;45711;50.108;13.712;2023-07-30T02:57:20;5.72;;;3.60;;
59830;SDS011;45711;50.108;13.712;2023-07-30T02:59:46;9.70;;;3.83;;
59830;SDS011;45711;50.108;13.712;2023-07-30T03:02:11;11.98;;;3.92;;
59830;SDS011;45711;50.108;13.712;2023-07-30T03:04:38;11.35;;;4.63;;
59830;SDS011;45711;50.108;13.712;2023-07-30T03:07:04;12.50;;;4.65;;
59830;SDS011;45711;50.108;13.712;2023-07-30T03:09:30;8.95;;;5.78;;
59830;SDS011;45711;50.108;13.712;2023-07-30T03:11:55;14.68;;;5.15;;
59830;SDS011;45711;50.108;13.712;2023-07-30T03:14:21;13.20;;;4.85;;
59830;SDS011;45711;50.108;13.712;2023-07-30T03:16:47;8.20;;;5.10;;
59830;SDS011;45711;50.108;13.712;2023-07-30T03:19:13;8.88;;;5.50;;
59830;SDS011;45711;50.108;13.712;2023-07-30T03:21:40;11.40;;;5.40;;
59830;SDS011;45711;50.108;13.712;2023-07-30T03:24:05;7.85;;;4.38;;
59830;SDS011;45711;50.108;13.712;2023-07-30T03:26:31;9.10;;;3.70;;
59830;SDS011;45711;50.108;13.712;2023-07-30T03:28:56;10.43;;;3.53;;
59830;SDS011;45711;50.108;13.712;2023-07-30T03:31:22;7.55;;;2.88;;
59830;SDS011;45711;50.108;13.712;2023-07-30T03:33:47;8.30;;;3.13;;
59830;SDS011;45711;50.108;13.712;2023-07-30T03:36:13;6.45;;;3.50;;
59830;SDS011;45711;50.108;13.712;2023-07-30T03:38:41;9.60;;;3.35;;
59830;SDS011;45711;50.108;13.712;2023-07-30T03:41:06;8.60;;;3.05;;
59830;SDS011;45711;50.108;13.712;2023-07-30T03:43:32;9.90;;;3.05;;
59830;SDS011;45711;50.108;13.712;2023-07-30T03:45:58;10.80;;;3.38;;
59830;SDS011;45711;50.108;13.712;2023-07-30T03:48:23;11.95;;;3.38;;
59830;SDS011;45711;50.108;13.712;2023-07-30T03:50:49;15.27;;;3.65;;
59830;SDS011;45711;50.108;13.712;2023-07-30T03:53:14;6.35;;;3.40;;
59830;SDS011;45711;50.108;13.712;2023-07-30T03:55:41;7.28;;;3.10;;
59830;SDS011;45711;50.108;13.712;2023-07-30T03:58:07;9.40;;;3.55;;
59830;SDS011;45711;50.108;13.712;2023-07-30T04:00:32;7.80;;;2.88;;
59830;SDS011;45711;50.108;13.712;2023-07-30T04:02:58;6.13;;;2.90;;
59830;SDS011;45711;50.108;13.712;2023-07-30T04:05:24;6.28;;;2.72;;
59830;SDS011;45711;50.108;13.712;2023-07-30T04:07:49;7.72;;;2.80;;
59830;SDS011;45711;50.108;13.712;2023-07-30T04:10:15;9.98;;;2.67;;
59830;SDS011;45711;50.108;13.712;2023-07-30T04:12:42;6.45;;;2.80;;
59830;SDS011;45711;50.108;13.712;2023-07-30T04:15:08;8.57;;;3.17;;
59830;SDS011;45711;50.108;13.712;2023-07-30T04:17:34;4.03;;;2.53;;
59830;SDS011;45711;50.108;13.712;2023-07-30T04:20:01;9.80;;;3.38;;
59830;SDS011;45711;50.108;13.712;2023-07-30T04:22:27;5.97;;;2.60;;
59830;SDS011;45711;50.108;13.712;2023-07-30T04:24:53;12.02;;;3.30;;
59830;SDS011;45711;50.108;13.712;2023-07-30T04:27:19;22.77;;;3.30;;
59830;SDS011;45711;50.108;13.712;2023-07-30T04:29:46;10.50;;;2.85;;
59830;SDS011;45711;50.108;13.712;2023-07-30T04:32:11;12.75;;;3.40;;
59830;SDS011;45711;50.108;13.712;2023-07-30T04:34:37;5.90;;;2.50;;
59830;SDS011;45711;50.108;13.712;2023-07-30T04:37:03;6.88;;;2.50;;
59830;SDS011;45711;50.108;13.712;2023-07-30T04:39:29;12.25;;;3.00;;
59830;SDS011;45711;50.108;13.712;2023-07-30T04:41:55;6.25;;;2.85;;
59830;SDS011;45711;50.108;13.712;2023-07-30T04:44:20;5.68;;;2.38;;
59830;SDS011;45711;50.108;13.712;2023-07-30T04:46:47;4.20;;;2.22;;
59830;SDS011;45711;50.108;13.712;2023-07-30T04:49:13;4.03;;;2.45;;
59830;SDS011;45711;50.108;13.712;2023-07-30T04:51:38;8.80;;;2.65;;
59830;SDS011;45711;50.108;13.712;2023-07-30T04:54:04;8.88;;;2.35;;
59830;SDS011;45711;50.108;13.712;2023-07-30T04:56:29;5.63;;;2.42;;
59830;SDS011;45711;50.108;13.712;2023-07-30T04:58:55;5.68;;;2.20;;
59830;SDS011;45711;50.108;13.712;2023-07-30T05:01:20;5.68;;;2.22;;
59830;SDS011;45711;50.108;13.712;2023-07-30T05:03:47;10.00;;;2.60;;
59830;SDS011;45711;50.108;13.712;2023-07-30T05:06:13;6.43;;;2.22;;
59830;SDS011;45711;50.108;13.712;2023-07-30T05:08:38;5.07;;;2.13;;
59830;SDS011;45711;50.108;13.712;2023-07-30T05:11:04;5.13;;;2.25;;
59830;SDS011;45711;50.108;13.712;2023-07-30T05:13:30;9.82;;;2.25;;
59830;SDS011;45711;50.108;13.712;2023-07-30T05:15:55;6.65;;;2.22;;
59830;SDS011;45711;50.108;13.712;2023-07-30T05:18:21;4.25;;;2.03;;
59830;SDS011;45711;50.108;13.712;2023-07-30T05:20:47;6.32;;;2.20;;
59830;SDS011;45711;50.108;13.712;2023-07-30T05:23:13;7.93;;;2.72;;
59830;SDS011;45711;50.108;13.712;2023-07-30T05:25:39;9.93;;;2.20;;
59830;SDS011;45711;50.108;13.712;2023-07-30T05:28:05;9.00;;;2.13;;
59830;SDS011;45711;50.108;13.712;2023-07-30T05:30:30;7.78;;;2.35;;
59830;SDS011;45711;50.108;13.712;2023-07-30T05:32:56;5.57;;;2.10;;
59830;SDS011;45711;50.108;13.712;2023-07-30T05:35:21;8.88;;;1.90;;
59830;SDS011;45711;50.108;13.712;2023-07-30T05:37:48;12.07;;;3.63;;
59830;SDS011;45711;50.108;13.712;2023-07-30T05:40:14;7.30;;;2.45;;
59830;SDS011;45711;50.108;13.712;2023-07-30T05:42:39;3.53;;;1.95;;
59830;SDS011;45711;50.108;13.712;2023-07-30T05:45:05;6.10;;;2.33;;
59830;SDS011;45711;50.108;13.712;2023-07-30T05:47:32;2.97;;;1.90;;
59830;SDS011;45711;50.108;13.712;2023-07-30T05:49:57;2.05;;;1.85;;
59830;SDS011;45711;50.108;13.712;2023-07-30T05:52:23;3.65;;;1.90;;
59830;SDS011;45711;50.108;13.712;2023-07-30T05:54:50;8.10;;;1.90;;
59830;SDS011;45711;50.108;13.712;2023-07-30T05:57:16;11.73;;;2.10;;
59830;SDS011;45711;50.108;13.712;2023-07-30T05:59:41;5.07;;;2.00;;
59830;SDS011;45711;50.108;13.712;2023-07-30T06:02:07;3.15;;;1.95;;
59830;SDS011;45711;50.108;13.712;2023-07-30T06:04:32;10.90;;;2.00;;
59830;SDS011;45711;50.108;13.712;2023-07-30T06:06:58;2.17;;;1.70;;
59830;SDS011;45711;50.108;13.712;2023-07-30T06:09:25;3.67;;;2.20;;
59830;SDS011;45711;50.108;13.712;2023-07-30T06:11:52;2.35;;;1.90;;
59830;SDS011;45711;50.108;13.712;2023-07-30T06:14:17;7.20;;;2.28;;
59830;SDS011;45711;50.108;13.712;2023-07-30T06:16:43;5.43;;;2.00;;
59830;SDS011;45711;50.108;13.712;2023-07-30T06:19:18;3.60;;;2.20;;
59830;SDS011;45711;50.108;13.712;2023-07-30T06:21:56;2.45;;;1.95;;
59830;SDS011;45711;50.108;13.712;2023-07-30T06:24:21;3.75;;;2.20;;
59830;SDS011;45711;50.108;13.712;2023-07-30T06:26:47;4.25;;;2.20;;
59830;SDS011;45711;50.108;13.712;2023-07-30T06:29:14;6.32;;;1.73;;
59830;SDS011;45711;50.108;13.712;2023-07-30T06:31:39;4.95;;;1.63;;
59830;SDS011;45711;50.108;13.712;2023-07-30T06:34:05;6.32;;;1.98;;
59830;SDS011;45711;50.108;13.712;2023-07-30T06:36:31;4.50;;;1.90;;
59830;SDS011;45711;50.108;13.712;2023-07-30T06:38:56;5.93;;;1.85;;
59830;SDS011;45711;50.108;13.712;2023-07-30T06:41:22;13.88;;;2.80;;
59830;SDS011;45711;50.108;13.712;2023-07-30T06:43:48;17.40;;;3.50;;
59830;SDS011;45711;50.108;13.712;2023-07-30T06:46:18;15.13;;;2.80;;
59830;SDS011;45711;50.108;13.712;2023-07-30T06:56:30;8.10;;;2.30;;
59830;SDS011;45711;50.108;13.712;2023-07-30T06:58:56;10.38;;;3.20;;
59830;SDS011;45711;50.108;13.712;2023-07-30T07:01:23;7.07;;;1.92;;
59830;SDS011;45711;50.108;13.712;2023-07-30T07:38:39;4.88;;;0.80;;
59830;SDS011;45711;50.108;13.712;2023-07-30T07:41:05;4.82;;;1.20;;
59830;SDS011;45711;50.108;13.712;2023-07-30T07:43:30;2.05;;;0.90;;
59830;SDS011;45711;50.108;13.712;2023-07-30T07:48:30;2.42;;;1.05;;
59830;SDS011;45711;50.108;13.712;2023-07-30T07:53:31;9.10;;;1.02;;
59830;SDS011;45711;50.108;13.712;2023-07-30T07:58:37;2.85;;;1.13;;
59830;SDS011;45711;50.108;13.712;2023-07-30T08:09:39;5.50;;;2.00;;
59830;SDS011;45711;50.108;13.712;2023-07-30T08:12:05;3.38;;;1.65;;
59830;SDS011;45711;50.108;13.712;2023-07-30T08:27:26;2.40;;;1.13;;
59830;SDS011;45711;50.108;13.712;2023-07-30T08:29:51;2.25;;;1.25;;
59830;SDS011;45711;50.108;13.712;2023-07-30T08:32:17;3.70;;;1.27;;
59830;SDS011;45711;50.108;13.712;2023-07-30T08:34:43;2.38;;;1.05;;
59830;SDS011;45711;50.108;13.712;2023-07-30T08:42:34;4.20;;;1.30;;
59830;SDS011;45711;50.108;13.712;2023-07-30T08:45:00;2.53;;;1.08;;
59830;SDS011;45711;50.108;13.712;2023-07-30T08:47:28;4.57;;;1.10;;
59830;SDS011;45711;50.108;13.712;2023-07-30T08:49:57;1.92;;;1.40;;
59830;SDS011;45711;50.108;13.712;2023-07-30T08:52:22;1.63;;;1.05;;
59830;SDS011;45711;50.108;13.712;2023-07-30T08:54:50;3.45;;;1.20;;
59830;SDS011;45711;50.108;13.712;2023-07-30T08:57:16;2.22;;;1.10;;
59830;SDS011;45711;50.108;13.712;2023-07-30T08:59:47;5.18;;;1.58;;
59830;SDS011;45711;50.108;13.712;2023-07-30T09:02:19;1.80;;;1.20;;
59830;SDS011;45711;50.108;13.712;2023-07-30T09:04:49;2.45;;;1.17;;
59830;SDS011;45711;50.108;13.712;2023-07-30T09:07:21;3.33;;;1.27;;
59830;SDS011;45711;50.108;13.712;2023-07-30T09:09:48;1.52;;;1.10;;
59830;SDS011;45711;50.108;13.712;2023-07-30T09:12:15;1.80;;;1.00;;
59830;SDS011;45711;50.108;13.712;2023-07-30T09:14:50;1.92;;;1.08;;
59830;SDS011;45711;50.108;13.712;2023-07-30T09:17:16;2.00;;;1.40;;
59830;SDS011;45711;50.108;13.712;2023-07-30T09:19:51;3.30;;;1.77;;
59830;SDS011;45711;50.108;13.712;2023-07-30T09:22:24;3.28;;;1.60;;
59830;SDS011;45711;50.108;13.712;2023-07-30T09:24:52;1.70;;;1.08;;
59830;SDS011;45711;50.108;13.712;2023-07-30T09:27:28;3.63;;;1.35;;
59830;SDS011;45711;50.108;13.712;2023-07-30T09:29:55;2.47;;;1.20;;
59830;SDS011;45711;50.108;13.712;2023-07-30T09:32:25;1.88;;;1.23;;
59830;SDS011;45711;50.108;13.712;2023-07-30T09:34:51;1.33;;;1.15;;
59830;SDS011;45711;50.108;13.712;2023-07-30T09:37:16;1.45;;;1.35;;
59830;SDS011;45711;50.108;13.712;2023-07-30T09:39:42;3.15;;;1.77;;
59830;SDS011;45711;50.108;13.712;2023-07-30T09:42:08;4.00;;;1.20;;
59830;SDS011;45711;50.108;13.712;2023-07-30T09:44:34;1.48;;;1.00;;
59830;SDS011;45711;50.108;13.712;2023-07-30T09:47:04;1.70;;;1.60;;
59830;SDS011;45711;50.108;13.712;2023-07-30T09:49:31;1.60;;;1.02;;
59830;SDS011;45711;50.108;13.712;2023-07-30T09:51:57;2.22;;;1.42;;
59830;SDS011;45711;50.108;13.712;2023-07-30T09:54:26;1.40;;;1.23;;
59830;SDS011;45711;50.108;13.712;2023-07-30T09:56:52;1.65;;;1.40;;
59830;SDS011;45711;50.108;13.712;2023-07-30T09:59:18;1.55;;;1.08;;
59830;SDS011;45711;50.108;13.712;2023-07-30T10:01:44;2.42;;;1.23;;
59830;SDS011;45711;50.108;13.712;2023-07-30T10:04:13;4.05;;;1.55;;
59830;SDS011;45711;50.108;13.712;2023-07-30T10:06:39;2.80;;;1.50;;
59830;SDS011;45711;50.108;13.712;2023-07-30T10:09:10;2.10;;;1.40;;
59830;SDS011;45711;50.108;13.712;2023-07-30T10:11:38;2.55;;;1.23;;
59830;SDS011;45711;50.108;13.712;2023-07-30T10:14:05;1.88;;;1.45;;
59830;SDS011;45711;50.108;13.712;2023-07-30T10:16:31;2.35;;;1.33;;
59830;SDS011;45711;50.108;13.712;2023-07-30T10:18:57;3.10;;;1.73;;
59830;SDS011;45711;50.108;13.712;2023-07-30T10:21:25;2.78;;;1.30;;
59830;SDS011;45711;50.108;13.712;2023-07-30T10:24:01;1.65;;;1.30;;
59830;SDS011;45711;50.108;13.712;2023-07-30T10:26:28;2.88;;;1.48;;
59830;SDS011;45711;50.108;13.712;2023-07-30T10:29:12;2.10;;;1.33;;
59830;SDS011;45711;50.108;13.712;2023-07-30T10:31:38;2.13;;;1.60;;
59830;SDS011;45711;50.108;13.712;2023-07-30T10:34:06;1.83;;;1.33;;
59830;SDS011;45711;50.108;13.712;2023-07-30T10:36:40;2.47;;;1.58;;
59830;SDS011;45711;50.108;13.712;2023-07-30T10:39:10;1.98;;;1.65;;
59830;SDS011;45711;50.108;13.712;2023-07-30T10:41:54;2.38;;;1.55;;
59830;SDS011;45711;50.108;13.712;2023-07-30T10:44:44;2.15;;;1.38;;
59830;SDS011;45711;50.108;13.712;2023-07-30T10:47:14;2.00;;;1.45;;
59830;SDS011;45711;50.108;13.712;2023-07-30T10:49:43;1.70;;;1.38;;
59830;SDS011;45711;50.108;13.712;2023-07-30T10:52:17;1.48;;;1.30;;
59830;SDS011;45711;50.108;13.712;2023-07-30T10:54:42;1.52;;;1.20;;
59830;SDS011;45711;50.108;13.712;2023-07-30T10:57:08;1.40;;;1.30;;
59830;SDS011;45711;50.108;13.712;2023-07-30T10:59:34;1.88;;;1.42;;
59830;SDS011;45711;50.108;13.712;2023-07-30T11:02:01;1.67;;;1.20;;
59830;SDS011;45711;50.108;13.712;2023-07-30T11:04:27;1.77;;;1.30;;
59830;SDS011;45711;50.108;13.712;2023-07-30T11:06:59;2.15;;;1.60;;
59830;SDS011;45711;50.108;13.712;2023-07-30T11:09:26;1.75;;;1.20;;
59830;SDS011;45711;50.108;13.712;2023-07-30T11:11:53;1.88;;;1.33;;
59830;SDS011;45711;50.108;13.712;2023-07-30T11:14:20;2.13;;;1.60;;
59830;SDS011;45711;50.108;13.712;2023-07-30T11:16:48;2.00;;;1.60;;
59830;SDS011;45711;50.108;13.712;2023-07-30T11:19:15;1.65;;;1.38;;
59830;SDS011;45711;50.108;13.712;2023-07-30T11:21:43;2.17;;;1.52;;
59830;SDS011;45711;50.108;13.712;2023-07-30T11:24:12;1.67;;;1.38;;
59830;SDS011;45711;50.108;13.712;2023-07-30T11:26:41;1.88;;;1.52;;
59830;SDS011;45711;50.108;13.712;2023-07-30T11:29:19;2.65;;;1.50;;
59830;SDS011;45711;50.108;13.712;2023-07-30T11:31:45;3.42;;;1.58;;
59830;SDS011;45711;50.108;13.712;2023-07-30T11:34:12;1.75;;;1.38;;
59830;SDS011;45711;50.108;13.712;2023-07-30T11:36:39;1.40;;;1.30;;
59830;SDS011;45711;50.108;13.712;2023-07-30T11:39:06;2.42;;;1.60;;
59830;SDS011;45711;50.108;13.712;2023-07-30T11:41:32;1.60;;;1.48;;
59830;SDS011;45711;50.108;13.712;2023-07-30T11:44:00;5.40;;;2.05;;
59830;SDS011;45711;50.108;13.712;2023-07-30T11:46:25;6.72;;;2.72;;
59830;SDS011;45711;50.108;13.712;2023-07-30T11:48:51;3.42;;;1.65;;
59830;SDS011;45711;50.108;13.712;2023-07-30T11:51:18;1.73;;;1.45;;
59830;SDS011;45711;50.108;13.712;2023-07-30T11:53:47;1.40;;;1.30;;
59830;SDS011;45711;50.108;13.712;2023-07-30T11:56:15;1.90;;;1.27;;
59830;SDS011;45711;50.108;13.712;2023-07-30T11:58:42;1.83;;;1.60;;
59830;SDS011;45711;50.108;13.712;2023-07-30T12:01:09;1.75;;;1.50;;
59830;SDS011;45711;50.108;13.712;2023-07-30T12:03:35;2.28;;;1.55;;
59830;SDS011;45711;50.108;13.712;2023-07-30T12:06:04;1.48;;;1.38;;
59830;SDS011;45711;50.108;13.712;2023-07-30T12:08:30;1.75;;;1.45;;
59830;SDS011;45711;50.108;13.712;2023-07-30T12:11:02;2.47;;;1.70;;
59830;SDS011;45711;50.108;13.712;2023-07-30T12:13:28;8.30;;;2.83;;
59830;SDS011;45711;50.108;13.712;2023-07-30T12:15:54;3.15;;;1.58;;
59830;SDS011;45711;50.108;13.712;2023-07-30T12:18:22;1.67;;;1.40;;
59830;SDS011;45711;50.108;13.712;2023-07-30T12:20:49;1.40;;;1.30;;
59830;SDS011;45711;50.108;13.712;2023-07-30T12:23:18;1.80;;;1.40;;
59830;SDS011;45711;50.108;13.712;2023-07-30T12:25:46;2.75;;;1.40;;
59830;SDS011;45711;50.108;13.712;2023-07-30T12:28:12;1.83;;;1.42;;
59830;SDS011;45711;50.108;13.712;2023-07-30T12:30:37;1.70;;;1.40;;
59830;SDS011;45711;50.108;13.712;2023-07-30T12:33:03;1.40;;;1.30;;
59830;SDS011;45711;50.108;13.712;2023-07-30T12:35:31;1.98;;;1.50;;
59830;SDS011;45711;50.108;13.712;2023-07-30T12:37:57;2.53;;;1.38;;
59830;SDS011;45711;50.108;13.712;2023-07-30T12:40:22;1.85;;;1.40;;
59830;SDS011;45711;50.108;13.712;2023-07-30T12:42:48;1.50;;;1.40;;
59830;SDS011;45711;50.108;13.712;2023-07-30T12:45:14;3.78;;;1.40;;
59830;SDS011;45711;50.108;13.712;2023-07-30T12:47:39;2.03;;;1.33;;
59830;SDS011;45711;50.108;13.712;2023-07-30T12:50:05;3.47;;;1.58;;
59830;SDS011;45711;50.108;13.712;2023-07-30T12:52:33;6.03;;;1.77;;
59830;SDS011;45711;50.108;13.712;2023-07-30T12:54:59;1.63;;;1.20;;
59830;SDS011;45711;50.108;13.712;2023-07-30T12:57:25;1.20;;;1.10;;
59830;SDS011;45711;50.108;13.712;2023-07-30T12:59:51;4.57;;;1.35;;
59830;SDS011;45711;50.108;13.712;2023-07-30T13:02:16;1.63;;;1.40;;
59830;SDS011;45711;50.108;13.712;2023-07-30T13:04:45;1.83;;;1.38;;
59830;SDS011;45711;50.108;13.712;2023-07-30T13:07:10;2.78;;;1.20;;
59830;SDS011;45711;50.108;13.712;2023-07-30T13:09:37;2.35;;;1.17;;
59830;SDS011;45711;50.108;13.712;2023-07-30T13:12:03;1.88;;;1.30;;
59830;SDS011;45711;50.108;13.712;2023-07-30T13:14:29;1.20;;;1.10;;
59830;SDS011;45711;50.108;13.712;2023-07-30T13:16:54;3.28;;;1.27;;
59830;SDS011;45711;50.108;13.712;2023-07-30T13:19:20;1.40;;;1.15;;
59830;SDS011;45711;50.108;13.712;2023-07-30T13:21:45;3.47;;;1.38;;
59830;SDS011;45711;50.108;13.712;2023-07-30T13:24:11;3.33;;;1.15;;
59830;SDS011;45711;50.108;13.712;2023-07-30T13:26:38;1.70;;;1.20;;
59830;SDS011;45711;50.108;13.712;2023-07-30T13:29:05;1.30;;;1.20;;
59830;SDS011;45711;50.108;13.712;2023-07-30T13:31:31;2.55;;;1.25;;
59830;SDS011;45711;50.108;13.712;2023-07-30T13:33:57;3.53;;;1.23;;
59830;SDS011;45711;50.108;13.712;2023-07-30T13:36:22;2.22;;;1.30;;
59830;SDS011;45711;50.108;13.712;2023-07-30T13:38:48;1.30;;;1.17;;
59830;SDS011;45711;50.108;13.712;2023-07-30T13:41:13;1.48;;;1.33;;
59830;SDS011;45711;50.108;13.712;2023-07-30T13:43:40;1.08;;;0.98;;
59830;SDS011;45711;50.108;13.712;2023-07-30T13:46:06;3.22;;;1.40;;
59830;SDS011;45711;50.108;13.712;2023-07-30T13:48:31;2.17;;;1.40;;
59830;SDS011;45711;50.108;13.712;2023-07-30T13:50:57;1.98;;;1.33;;
59830;SDS011;45711;50.108;13.712;2023-07-30T13:53:23;1.42;;;1.10;;
59830;SDS011;45711;50.108;13.712;2023-07-30T13:55:55;1.42;;;1.05;;
59830;SDS011;45711;50.108;13.712;2023-07-30T13:58:24;5.78;;;1.30;;
59830;SDS011;45711;50.108;13.712;2023-07-30T14:00:53;1.42;;;1.00;;
59830;SDS011;45711;50.108;13.712;2023-07-30T14:03:23;3.00;;;1.30;;
59830;SDS011;45711;50.108;13.712;2023-07-30T14:05:49;1.58;;;1.23;;
59830;SDS011;45711;50.108;13.712;2023-07-30T14:08:14;4.63;;;1.27;;
59830;SDS011;45711;50.108;13.712;2023-07-30T14:10:40;2.22;;;1.20;;
59830;SDS011;45711;50.108;13.712;2023-07-30T14:13:05;1.38;;;1.27;;
59830;SDS011;45711;50.108;13.712;2023-07-30T14:15:31;2.55;;;1.30;;
59830;SDS011;45711;50.108;13.712;2023-07-30T14:17:59;1.88;;;1.40;;
59830;SDS011;45711;50.108;13.712;2023-07-30T14:20:25;1.92;;;1.33;;
59830;SDS011;45711;50.108;13.712;2023-07-30T14:22:51;2.25;;;1.30;;
59830;SDS011;45711;50.108;13.712;2023-07-30T14:25:16;2.13;;;1.30;;
59830;SDS011;45711;50.108;13.712;2023-07-30T14:27:42;3.80;;;1.35;;
59830;SDS011;45711;50.108;13.712;2023-07-30T14:30:08;3.15;;;1.30;;
59830;SDS011;45711;50.108;13.712;2023-07-30T14:32:34;2.00;;;0.95;;
59830;SDS011;45711;50.108;13.712;2023-07-30T14:35:01;6.32;;;0.90;;
59830;SDS011;45711;50.108;13.712;2023-07-30T14:37:26;2.63;;;1.25;;
59830;SDS011;45711;50.108;13.712;2023-07-30T14:39:52;1.92;;;1.00;;
59830;SDS011;45711;50.108;13.712;2023-07-30T14:42:17;3.28;;;1.00;;
59830;SDS011;45711;50.108;13.712;2023-07-30T14:44:43;2.65;;;1.15;;
59830;SDS011;45711;50.108;13.712;2023-07-30T14:47:08;3.67;;;1.00;;
59830;SDS011;45711;50.108;13.712;2023-07-30T14:49:35;4.97;;;0.98;;
59830;SDS011;45711;50.108;13.712;2023-07-30T14:52:04;2.22;;;1.10;;
59830;SDS011;45711;50.108;13.712;2023-07-30T14:54:30;2.10;;;0.93;;
59830;SDS011;45711;50.108;13.712;2023-07-30T14:56:55;1.25;;;1.05;;
59830;SDS011;45711;50.108;13.712;2023-07-30T14:59:21;2.20;;;1.15;;
59830;SDS011;45711;50.108;13.712;2023-07-30T15:01:46;2.25;;;1.00;;
59830;SDS011;45711;50.108;13.712;2023-07-30T15:04:12;2.75;;;1.00;;
59830;SDS011;45711;50.108;13.712;2023-07-30T15:06:38;3.47;;;1.05;;
59830;SDS011;45711;50.108;13.712;2023-07-30T15:09:05;3.17;;;1.10;;
59830;SDS011;45711;50.108;13.712;2023-07-30T15:11:31;4.68;;;1.20;;
59830;SDS011;45711;50.108;13.712;2023-07-30T15:13:56;2.10;;;0.90;;
59830;SDS011;45711;50.108;13.712;2023-07-30T15:16:22;3.13;;;0.88;;
59830;SDS011;45711;50.108;13.712;2023-07-30T15:18:47;3.60;;;1.38;;
59830;SDS011;45711;50.108;13.712;2023-07-30T15:21:13;5.57;;;1.00;;
59830;SDS011;45711;50.108;13.712;2023-07-30T15:23:38;5.85;;;1.10;;
59830;SDS011;45711;50.108;13.712;2023-07-30T15:26:06;6.07;;;1.23;;
59830;SDS011;45711;50.108;13.712;2023-07-30T15:28:31;1.70;;;1.10;;
59830;SDS011;45711;50.108;13.712;2023-07-30T15:30:57;2.58;;;0.85;;
59830;SDS011;45711;50.108;13.712;2023-07-30T15:33:24;2.00;;;1.17;;
59830;SDS011;45711;50.108;13.712;2023-07-30T15:35:50;2.45;;;1.20;;
59830;SDS011;45711;50.108;13.712;2023-07-30T15:38:16;1.77;;;0.88;;
59830;SDS011;45711;50.108;13.712;2023-07-30T15:40:41;2.92;;;1.23;;
59830;SDS011;45711;50.108;13.712;2023-07-30T15:43:10;2.92;;;1.00;;
59830;SDS011;45711;50.108;13.712;2023-07-30T15:45:37;1.73;;;1.33;;
59830;SDS011;45711;50.108;13.712;2023-07-30T15:48:07;1.45;;;0.90;;
59830;SDS011;45711;50.108;13.712;2023-07-30T15:50:33;6.10;;;1.40;;